sensor_id;sensor_type;location;lat;lon;timestamp;noise_LAeq;noise_LA_min;noise_LA_max;noise_LA01;noise_LA95
66888;Laerm;67239;51.680;5.976;2023-09-19T00:01:41;60.04;40.70;77.99;;
66888;Laerm;67239;51.680;5.976;2023-09-19T00:04:08;54.14;40.17;72.41;;
66888;Laerm;67239;51.680;5.976;2023-09-19T00:06:37;42.25;38.40;51.12;;
66888;Laerm;67239;51.680;5.976;2023-09-19T00:09:04;55.88;40.24;74.46;;
66888;Laerm;67239;51.680;5.976;2023-09-19T00:11:32;43.78;39.60;48.78;;
66888;Laerm;67239;51.680;5.976;2023-09-19T00:14:01;46.75;41.52;53.81;;
66888;Laerm;67239;51.680;5.976;2023-09-19T00:16:28;42.88;37.95;49.77;;
66888;Laerm;67239;51.680;5.976;2023-09-19T00:18:55;41.34;38.13;45.38;;
66888;Laerm;67239;51.680;5.976;2023-09-19T00:21:22;39.26;35.96;46.51;;
66888;Laerm;67239;51.680;5.976;2023-09-19T00:23:49;39.06;35.60;54.03;;
66888;Laerm;67239;51.680;5.976;2023-09-19T00:26:18;38.82;35.81;48.02;;
66888;Laerm;67239;51.680;5.976;2023-09-19T00:28:48;41.55;36.25;48.64;;
66888;Laerm;67239;51.680;5.976;2023-09-19T00:31:15;41.47;36.73;49.97;;
66888;Laerm;67239;51.680;5.976;2023-09-19T00:33:42;58.03;35.85;79.04;;
66888;Laerm;67239;51.680;5.976;2023-09-19T00:36:09;38.60;35.45;58.47;;
66888;Laerm;67239;51.680;5.976;2023-09-19T00:38:36;39.76;36.69;42.88;;
66888;Laerm;67239;51.680;5.976;2023-09-19T00:41:03;39.31;36.22;45.48;;
66888;Laerm;67239;51.680;5.976;2023-09-19T00:43:31;40.94;36.57;46.46;;
66888;Laerm;67239;51.680;5.976;2023-09-19T00:46:02;61.19;36.57;80.56;;
66888;Laerm;67239;51.680;5.976;2023-09-19T00:48:40;51.02;37.97;73.40;;
66888;Laerm;67239;51.680;5.976;2023-09-19T00:51:09;59.16;36.48;76.34;;
66888;Laerm;67239;51.680;5.976;2023-09-19T00:53:36;42.09;39.13;45.47;;
66888;Laerm;67239;51.680;5.976;2023-09-19T00:56:05;59.88;37.44;79.24;;
66888;Laerm;67239;51.680;5.976;2023-09-19T00:58:34;40.37;37.28;45.68;;
66888;Laerm;67239;51.680;5.976;2023-09-19T01:01:05;42.80;38.05;48.37;;
66888;Laerm;67239;51.680;5.976;2023-09-19T01:03:37;41.60;37.15;49.77;;
66888;Laerm;67239;51.680;5.976;2023-09-19T01:06:06;45.73;40.04;52.16;;
66888;Laerm;67239;51.680;5.976;2023-09-19T01:08:35;43.55;38.03;51.69;;
66888;Laerm;67239;51.680;5.976;2023-09-19T01:11:16;55.78;38.83;77.05;;
66888;Laerm;67239;51.680;5.976;2023-09-19T01:17:20;46.57;41.48;52.94;;
66888;Laerm;67239;51.680;5.976;2023-09-19T01:20:27;44.08;39.76;48.09;;
66888;Laerm;67239;51.680;5.976;2023-09-19T01:23:11;44.74;38.46;51.19;;
66888;Laerm;67239;51.680;5.976;2023-09-19T01:28:54;47.84;40.33;58.31;;
66888;Laerm;67239;51.680;5.976;2023-09-19T01:31:33;47.14;42.56;54.90;;
66888;Laerm;67239;51.680;5.976;2023-09-19T01:34:03;47.31;40.49;52.60;;
66888;Laerm;67239;51.680;5.976;2023-09-19T01:36:36;47.33;39.31;52.54;;
66888;Laerm;67239;51.680;5.976;2023-09-19T01:39:10;47.99;39.16;55.05;;
66888;Laerm;67239;51.680;5.976;2023-09-19T01:44:17;49.77;42.04;58.29;;
66888;Laerm;67239;51.680;5.976;2023-09-19T01:46:48;48.64;41.18;59.26;;
66888;Laerm;67239;51.680;5.976;2023-09-19T01:49:37;47.89;41.10;55.00;;
66888;Laerm;67239;51.680;5.976;2023-09-19T01:52:12;49.76;42.92;56.99;;
66888;Laerm;67239;51.680;5.976;2023-09-19T01:54:52;61.68;44.00;81.05;;
66888;Laerm;67239;51.680;5.976;2023-09-19T01:57:35;44.39;40.48;49.32;;
66888;Laerm;67239;51.680;5.976;2023-09-19T02:00:10;48.05;41.14;53.96;;
66888;Laerm;67239;51.680;5.976;2023-09-19T02:02:44;44.13;39.79;51.64;;
66888;Laerm;67239;51.680;5.976;2023-09-19T02:05:12;56.73;39.35;75.45;;
66888;Laerm;67239;51.680;5.976;2023-09-19T02:07:39;46.99;40.21;54.45;;
66888;Laerm;67239;51.680;5.976;2023-09-19T02:10:07;42.74;39.97;46.08;;
66888;Laerm;67239;51.680;5.976;2023-09-19T02:12:37;43.28;39.60;47.97;;
66888;Laerm;67239;51.680;5.976;2023-09-19T02:15:05;44.66;40.11;63.43;;
66888;Laerm;67239;51.680;5.976;2023-09-19T02:17:34;44.40;38.84;50.36;;
66888;Laerm;67239;51.680;5.976;2023-09-19T02:20:02;46.42;41.40;55.43;;
66888;Laerm;67239;51.680;5.976;2023-09-19T02:22:37;44.84;39.91;51.57;;
66888;Laerm;67239;51.680;5.976;2023-09-19T02:25:06;45.01;40.29;52.04;;
66888;Laerm;67239;51.680;5.976;2023-09-19T02:27:35;60.27;41.70;77.74;;
66888;Laerm;67239;51.680;5.976;2023-09-19T02:30:04;45.93;40.33;58.94;;
66888;Laerm;67239;51.680;5.976;2023-09-19T02:32:33;45.30;40.77;56.40;;
66888;Laerm;67239;51.680;5.976;2023-09-19T02:35:04;45.93;40.67;51.74;;
66888;Laerm;67239;51.680;5.976;2023-09-19T02:37:31;47.19;41.91;53.77;;
66888;Laerm;67239;51.680;5.976;2023-09-19T02:39:59;55.55;41.00;73.78;;
66888;Laerm;67239;51.680;5.976;2023-09-19T02:42:26;49.15;42.27;57.87;;
66888;Laerm;67239;51.680;5.976;2023-09-19T02:44:54;60.64;40.38;79.15;;
66888;Laerm;67239;51.680;5.976;2023-09-19T02:47:21;60.48;40.32;80.27;;
66888;Laerm;67239;51.680;5.976;2023-09-19T02:49:48;59.94;39.51;76.58;;
66888;Laerm;67239;51.680;5.976;2023-09-19T02:52:15;43.46;38.25;52.61;;
66888;Laerm;67239;51.680;5.976;2023-09-19T02:54:42;44.59;39.56;50.24;;
66888;Laerm;67239;51.680;5.976;2023-09-19T02:57:11;60.61;40.40;78.02;;
66888;Laerm;67239;51.680;5.976;2023-09-19T02:59:41;47.47;39.60;63.20;;
66888;Laerm;67239;51.680;5.976;2023-09-19T03:02:09;53.44;40.80;70.38;;
66888;Laerm;67239;51.680;5.976;2023-09-19T03:04:36;63.87;40.36;79.90;;
66888;Laerm;67239;51.680;5.976;2023-09-19T03:07:04;56.04;41.13;74.78;;
66888;Laerm;67239;51.680;5.976;2023-09-19T03:09:31;52.93;40.51;68.66;;
66888;Laerm;67239;51.680;5.976;2023-09-19T03:11:58;55.32;40.73;74.61;;
66888;Laerm;67239;51.680;5.976;2023-09-19T03:14:27;55.25;42.38;72.40;;
66888;Laerm;67239;51.680;5.976;2023-09-19T03:16:58;67.78;41.87;82.57;;
66888;Laerm;67239;51.680;5.976;2023-09-19T03:19:26;63.00;42.83;77.51;;
66888;Laerm;67239;51.680;5.976;2023-09-19T03:21:57;55.79;42.68;74.15;;
66888;Laerm;67239;51.680;5.976;2023-09-19T03:24:24;63.99;42.25;84.20;;
66888;Laerm;67239;51.680;5.976;2023-09-19T03:26:52;55.67;42.02;72.40;;
66888;Laerm;67239;51.680;5.976;2023-09-19T03:29:19;45.23;41.88;49.93;;
66888;Laerm;67239;51.680;5.976;2023-09-19T03:31:46;65.27;42.24;81.84;;
66888;Laerm;67239;51.680;5.976;2023-09-19T03:34:13;57.53;42.27;72.78;;
66888;Laerm;67239;51.680;5.976;2023-09-19T03:36:41;56.18;43.39;74.31;;
66888;Laerm;67239;51.680;5.976;2023-09-19T03:39:08;62.50;43.69;79.25;;
66888;Laerm;67239;51.680;5.976;2023-09-19T03:41:35;57.70;42.96;72.03;;
66888;Laerm;67239;51.680;5.976;2023-09-19T03:44:04;62.26;43.94;73.89;;
66888;Laerm;67239;51.680;5.976;2023-09-19T03:46:31;66.34;43.94;82.55;;
66888;Laerm;67239;51.680;5.976;2023-09-19T03:48:59;64.43;42.18;75.86;;
66888;Laerm;67239;51.680;5.976;2023-09-19T03:51:27;63.32;43.29;79.90;;
66888;Laerm;67239;51.680;5.976;2023-09-19T03:53:54;53.88;40.69;69.70;;
66888;Laerm;67239;51.680;5.976;2023-09-19T03:56:21;69.51;42.38;84.08;;
66888;Laerm;67239;51.680;5.976;2023-09-19T03:58:48;64.39;41.52;82.39;;
66888;Laerm;67239;51.680;5.976;2023-09-19T04:01:16;61.25;41.24;76.35;;
66888;Laerm;67239;51.680;5.976;2023-09-19T04:03:45;67.57;42.02;81.82;;
66888;Laerm;67239;51.680;5.976;2023-09-19T04:06:14;67.92;43.97;80.37;;
66888;Laerm;67239;51.680;5.976;2023-09-19T04:08:43;67.37;44.98;82.10;;
66888;Laerm;67239;51.680;5.976;2023-09-19T04:11:11;64.92;43.09;80.47;;
66888;Laerm;67239;51.680;5.976;2023-09-19T04:13:38;66.96;42.60;81.65;;
66888;Laerm;67239;51.680;5.976;2023-09-19T04:16:06;68.18;45.20;81.48;;
66888;Laerm;67239;51.680;5.976;2023-09-19T04:18:37;68.13;48.32;82.30;;
66888;Laerm;67239;51.680;5.976;2023-09-19T04:21:06;64.59;41.84;82.33;;
66888;Laerm;67239;51.680;5.976;2023-09-19T04:23:34;66.77;42.23;82.32;;
66888;Laerm;67239;51.680;5.976;2023-09-19T04:26:03;65.64;41.97;81.07;;
66888;Laerm;67239;51.680;5.976;2023-09-19T04:28:34;67.16;43.13;81.70;;
66888;Laerm;67239;51.680;5.976;2023-09-19T04:31:03;63.15;40.71;87.00;;
66888;Laerm;67239;51.680;5.976;2023-09-19T04:33:30;69.42;44.34;86.63;;
66888;Laerm;67239;51.680;5.976;2023-09-19T04:35:57;66.89;43.26;81.09;;
66888;Laerm;67239;51.680;5.976;2023-09-19T04:38:33;66.28;46.80;78.81;;
66888;Laerm;67239;51.680;5.976;2023-09-19T04:41:01;63.64;45.31;78.43;;
66888;Laerm;67239;51.680;5.976;2023-09-19T04:43:29;62.53;45.31;77.84;;
66888;Laerm;67239;51.680;5.976;2023-09-19T04:45:57;62.54;44.97;77.06;;
66888;Laerm;67239;51.680;5.976;2023-09-19T04:48:27;65.50;45.11;79.50;;
66888;Laerm;67239;51.680;5.976;2023-09-19T04:50:55;65.02;44.45;80.03;;
66888;Laerm;67239;51.680;5.976;2023-09-19T04:53:23;67.24;48.04;82.45;;
66888;Laerm;67239;51.680;5.976;2023-09-19T04:55:52;66.87;46.30;80.83;;
66888;Laerm;67239;51.680;5.976;2023-09-19T04:58:19;68.34;46.67;82.61;;
66888;Laerm;67239;51.680;5.976;2023-09-19T05:00:47;64.74;45.29;79.57;;
66888;Laerm;67239;51.680;5.976;2023-09-19T05:03:14;65.31;44.92;77.05;;
66888;Laerm;67239;51.680;5.976;2023-09-19T05:05:41;66.38;46.95;83.64;;
66888;Laerm;67239;51.680;5.976;2023-09-19T05:08:09;68.04;47.54;83.81;;
66888;Laerm;67239;51.680;5.976;2023-09-19T05:10:37;67.80;48.38;80.29;;
66888;Laerm;67239;51.680;5.976;2023-09-19T05:13:05;67.15;48.41;79.10;;
66888;Laerm;67239;51.680;5.976;2023-09-19T05:15:32;70.03;49.72;83.03;;
66888;Laerm;67239;51.680;5.976;2023-09-19T05:17:59;68.76;50.82;83.14;;
66888;Laerm;67239;51.680;5.976;2023-09-19T05:20:26;66.03;47.06;80.50;;
66888;Laerm;67239;51.680;5.976;2023-09-19T05:23:02;66.00;48.73;77.79;;
66888;Laerm;67239;51.680;5.976;2023-09-19T05:25:32;66.25;46.01;80.20;;
66888;Laerm;67239;51.680;5.976;2023-09-19T05:28:00;64.49;47.95;78.19;;
66888;Laerm;67239;51.680;5.976;2023-09-19T05:30:35;68.93;48.77;82.23;;
66888;Laerm;67239;51.680;5.976;2023-09-19T05:33:07;68.28;49.41;80.48;;
66888;Laerm;67239;51.680;5.976;2023-09-19T05:35:36;69.52;51.05;80.66;;
66888;Laerm;67239;51.680;5.976;2023-09-19T05:38:06;70.26;47.63;89.04;;
66888;Laerm;67239;51.680;5.976;2023-09-19T05:40:36;68.62;49.30;81.81;;
66888;Laerm;67239;51.680;5.976;2023-09-19T05:43:03;69.09;46.93;81.55;;
66888;Laerm;67239;51.680;5.976;2023-09-19T05:45:32;70.30;51.46;80.32;;
66888;Laerm;67239;51.680;5.976;2023-09-19T05:48:14;63.94;47.01;78.79;;
66888;Laerm;67239;51.680;5.976;2023-09-19T05:50:43;69.99;53.04;87.64;;
66888;Laerm;67239;51.680;5.976;2023-09-19T05:53:11;68.44;49.00;82.99;;
66888;Laerm;67239;51.680;5.976;2023-09-19T05:55:42;68.80;48.46;83.89;;
66888;Laerm;67239;51.680;5.976;2023-09-19T05:58:09;69.80;47.64;85.70;;
66888;Laerm;67239;51.680;5.976;2023-09-19T06:00:37;67.65;47.21;79.67;;
66888;Laerm;67239;51.680;5.976;2023-09-19T06:03:06;68.82;47.11;80.47;;
66888;Laerm;67239;51.680;5.976;2023-09-19T06:05:33;68.41;47.38;82.52;;
66888;Laerm;67239;51.680;5.976;2023-09-19T06:08:00;65.79;46.60;78.73;;
66888;Laerm;67239;51.680;5.976;2023-09-19T06:10:28;67.14;46.44;79.91;;
66888;Laerm;67239;51.680;5.976;2023-09-19T06:12:56;67.29;47.43;81.21;;
66888;Laerm;67239;51.680;5.976;2023-09-19T06:15:25;73.23;51.34;89.33;;
66888;Laerm;67239;51.680;5.976;2023-09-19T06:17:55;67.90;50.37;80.85;;
66888;Laerm;67239;51.680;5.976;2023-09-19T06:20:24;68.54;45.63;81.99;;
66888;Laerm;67239;51.680;5.976;2023-09-19T06:22:53;67.88;46.81;79.57;;
66888;Laerm;67239;51.680;5.976;2023-09-19T06:25:21;69.96;49.07;88.04;;
66888;Laerm;67239;51.680;5.976;2023-09-19T06:27:51;69.35;48.77;78.78;;
66888;Laerm;67239;51.680;5.976;2023-09-19T06:30:24;67.87;48.61;77.35;;
66888;Laerm;67239;51.680;5.976;2023-09-19T06:32:57;65.72;46.34;79.25;;
66888;Laerm;67239;51.680;5.976;2023-09-19T06:35:25;66.99;49.25;77.38;;
66888;Laerm;67239;51.680;5.976;2023-09-19T06:37:56;70.49;47.31;85.08;;
66888;Laerm;67239;51.680;5.976;2023-09-19T06:40:25;69.28;47.78;80.29;;
66888;Laerm;67239;51.680;5.976;2023-09-19T06:42:53;65.86;46.85;78.62;;
66888;Laerm;67239;51.680;5.976;2023-09-19T06:45:21;67.10;47.48;80.40;;
66888;Laerm;67239;51.680;5.976;2023-09-19T06:47:51;65.83;47.02;80.71;;
66888;Laerm;67239;51.680;5.976;2023-09-19T06:50:21;68.43;47.45;80.24;;
66888;Laerm;67239;51.680;5.976;2023-09-19T06:52:51;66.70;48.39;79.01;;
66888;Laerm;67239;51.680;5.976;2023-09-19T06:55:20;67.61;48.34;78.78;;
66888;Laerm;67239;51.680;5.976;2023-09-19T06:57:48;68.75;48.80;80.92;;
66888;Laerm;67239;51.680;5.976;2023-09-19T07:00:16;68.77;45.81;82.74;;
66888;Laerm;67239;51.680;5.976;2023-09-19T07:05:28;66.30;46.94;80.25;;
66888;Laerm;67239;51.680;5.976;2023-09-19T07:07:56;69.16;46.38;81.96;;
66888;Laerm;67239;51.680;5.976;2023-09-19T07:10:27;64.68;48.71;80.64;;
66888;Laerm;67239;51.680;5.976;2023-09-19T07:13:00;63.50;48.53;77.35;;
66888;Laerm;67239;51.680;5.976;2023-09-19T07:15:28;65.81;49.00;78.79;;
66888;Laerm;67239;51.680;5.976;2023-09-19T07:17:57;68.24;50.99;78.93;;
66888;Laerm;67239;51.680;5.976;2023-09-19T07:20:24;67.42;47.83;79.80;;
66888;Laerm;67239;51.680;5.976;2023-09-19T07:22:58;68.80;51.21;81.47;;
66888;Laerm;67239;51.680;5.976;2023-09-19T07:25:29;66.59;48.17;83.53;;
66888;Laerm;67239;51.680;5.976;2023-09-19T07:28:00;68.40;52.61;80.57;;
66888;Laerm;67239;51.680;5.976;2023-09-19T07:30:28;68.38;48.76;79.40;;
66888;Laerm;67239;51.680;5.976;2023-09-19T07:32:56;63.72;45.37;76.58;;
66888;Laerm;67239;51.680;5.976;2023-09-19T07:35:23;67.97;48.63;81.73;;
66888;Laerm;67239;51.680;5.976;2023-09-19T07:37:51;66.45;46.71;79.41;;
66888;Laerm;67239;51.680;5.976;2023-09-19T07:40:22;64.16;48.29;75.89;;
66888;Laerm;67239;51.680;5.976;2023-09-19T07:42:54;64.35;47.17;80.43;;
66888;Laerm;67239;51.680;5.976;2023-09-19T07:45:21;67.64;46.55;81.24;;
66888;Laerm;67239;51.680;5.976;2023-09-19T07:47:50;67.69;48.05;79.86;;
66888;Laerm;67239;51.680;5.976;2023-09-19T07:50:19;64.95;49.17;77.00;;
66888;Laerm;67239;51.680;5.976;2023-09-19T07:52:48;68.55;48.62;82.01;;
66888;Laerm;67239;51.680;5.976;2023-09-19T07:55:18;66.55;49.10;80.26;;
66888;Laerm;67239;51.680;5.976;2023-09-19T07:57:47;64.14;48.08;77.48;;
66888;Laerm;67239;51.680;5.976;2023-09-19T08:00:15;69.87;53.31;83.85;;
66888;Laerm;67239;51.680;5.976;2023-09-19T08:02:43;65.66;49.22;80.10;;
66888;Laerm;67239;51.680;5.976;2023-09-19T08:05:11;69.08;48.63;83.76;;
66888;Laerm;67239;51.680;5.976;2023-09-19T08:07:41;67.46;49.66;81.53;;
66888;Laerm;67239;51.680;5.976;2023-09-19T08:10:10;65.28;48.78;77.16;;
66888;Laerm;67239;51.680;5.976;2023-09-19T08:12:43;66.06;46.92;77.71;;
66888;Laerm;67239;51.680;5.976;2023-09-19T08:15:18;66.27;45.81;80.78;;
66888;Laerm;67239;51.680;5.976;2023-09-19T08:17:48;67.71;49.24;83.20;;
66888;Laerm;67239;51.680;5.976;2023-09-19T08:20:15;68.37;48.04;80.74;;
66888;Laerm;67239;51.680;5.976;2023-09-19T08:22:50;66.59;47.79;81.49;;
66888;Laerm;67239;51.680;5.976;2023-09-19T08:25:24;64.41;46.94;81.72;;
66888;Laerm;67239;51.680;5.976;2023-09-19T08:27:55;66.81;47.18;76.97;;
66888;Laerm;67239;51.680;5.976;2023-09-19T08:30:24;65.13;46.20;79.52;;
66888;Laerm;67239;51.680;5.976;2023-09-19T08:32:58;64.42;49.41;79.06;;
66888;Laerm;67239;51.680;5.976;2023-09-19T08:35:28;67.15;48.00;81.11;;
66888;Laerm;67239;51.680;5.976;2023-09-19T08:37:56;68.32;48.38;82.23;;
66888;Laerm;67239;51.680;5.976;2023-09-19T08:40:23;64.19;46.18;78.54;;
66888;Laerm;67239;51.680;5.976;2023-09-19T08:42:55;64.15;44.99;79.08;;
66888;Laerm;67239;51.680;5.976;2023-09-19T08:45:24;64.39;51.53;74.97;;
66888;Laerm;67239;51.680;5.976;2023-09-19T08:48:25;66.60;49.57;79.84;;
66888;Laerm;67239;51.680;5.976;2023-09-19T08:51:07;69.68;52.33;79.78;;
66888;Laerm;67239;51.680;5.976;2023-09-19T08:54:07;65.15;47.51;80.98;;
66888;Laerm;67239;51.680;5.976;2023-09-19T08:56:35;67.76;46.66;87.23;;
66888;Laerm;67239;51.680;5.976;2023-09-19T08:59:07;70.12;54.56;83.55;;
66888;Laerm;67239;51.680;5.976;2023-09-19T09:01:35;68.75;49.70;82.95;;
66888;Laerm;67239;51.680;5.976;2023-09-19T09:04:06;69.28;49.14;84.46;;
66888;Laerm;67239;51.680;5.976;2023-09-19T09:06:37;68.64;48.52;81.68;;
66888;Laerm;67239;51.680;5.976;2023-09-19T09:09:06;66.44;46.64;79.34;;
66888;Laerm;67239;51.680;5.976;2023-09-19T09:11:36;67.06;49.63;79.59;;
66888;Laerm;67239;51.680;5.976;2023-09-19T09:14:07;67.19;47.56;82.01;;
66888;Laerm;67239;51.680;5.976;2023-09-19T09:16:34;66.82;51.69;77.94;;
66888;Laerm;67239;51.680;5.976;2023-09-19T09:19:02;68.44;49.21;81.81;;
66888;Laerm;67239;51.680;5.976;2023-09-19T09:21:29;65.58;48.48;79.29;;
66888;Laerm;67239;51.680;5.976;2023-09-19T09:23:56;67.47;50.58;82.24;;
66888;Laerm;67239;51.680;5.976;2023-09-19T09:26:42;66.99;52.01;80.31;;
66888;Laerm;67239;51.680;5.976;2023-09-19T09:29:14;67.38;52.35;80.47;;
66888;Laerm;67239;51.680;5.976;2023-09-19T09:31:47;66.01;47.74;78.66;;
66888;Laerm;67239;51.680;5.976;2023-09-19T09:34:16;68.57;51.56;82.02;;
66888;Laerm;67239;51.680;5.976;2023-09-19T09:36:48;65.80;48.68;80.89;;
66888;Laerm;67239;51.680;5.976;2023-09-19T09:39:31;67.23;45.64;81.59;;
66888;Laerm;67239;51.680;5.976;2023-09-19T09:41:59;66.25;50.08;79.83;;
66888;Laerm;67239;51.680;5.976;2023-09-19T09:44:26;66.77;50.90;78.86;;
66888;Laerm;67239;51.680;5.976;2023-09-19T09:46:59;66.01;49.87;80.02;;
66888;Laerm;67239;51.680;5.976;2023-09-19T09:49:49;65.38;50.37;79.41;;
66888;Laerm;67239;51.680;5.976;2023-09-19T09:52:21;66.80;52.25;78.28;;
66888;Laerm;67239;51.680;5.976;2023-09-19T09:55:02;65.27;48.39;79.05;;
66888;Laerm;67239;51.680;5.976;2023-09-19T09:57:33;70.41;49.81;84.34;;
66888;Laerm;67239;51.680;5.976;2023-09-19T10:00:02;68.81;52.43;79.27;;
66888;Laerm;67239;51.680;5.976;2023-09-19T10:02:39;63.97;49.42;77.56;;
66888;Laerm;67239;51.680;5.976;2023-09-19T10:05:16;63.84;49.58;77.32;;
66888;Laerm;67239;51.680;5.976;2023-09-19T10:07:48;66.70;48.71;79.64;;
66888;Laerm;67239;51.680;5.976;2023-09-19T10:10:36;66.22;50.62;79.02;;
66888;Laerm;67239;51.680;5.976;2023-09-19T10:13:13;69.76;49.71;85.28;;
66888;Laerm;67239;51.680;5.976;2023-09-19T10:15:49;69.39;50.73;81.41;;
66888;Laerm;67239;51.680;5.976;2023-09-19T10:18:27;67.34;51.61;78.53;;
66888;Laerm;67239;51.680;5.976;2023-09-19T10:20:57;65.57;47.59;78.91;;
66888;Laerm;67239;51.680;5.976;2023-09-19T10:23:26;67.19;50.85;81.85;;
66888;Laerm;67239;51.680;5.976;2023-09-19T10:25:57;64.27;49.74;76.02;;
66888;Laerm;67239;51.680;5.976;2023-09-19T10:28:28;69.11;52.49;83.17;;
66888;Laerm;67239;51.680;5.976;2023-09-19T10:30:57;66.78;50.71;78.78;;
66888;Laerm;67239;51.680;5.976;2023-09-19T10:33:25;67.72;51.13;80.29;;
66888;Laerm;67239;51.680;5.976;2023-09-19T10:35:54;69.43;51.68;82.86;;
66888;Laerm;67239;51.680;5.976;2023-09-19T10:38:25;65.89;48.15;77.50;;
66888;Laerm;67239;51.680;5.976;2023-09-19T10:40:55;67.90;49.88;82.29;;
66888;Laerm;67239;51.680;5.976;2023-09-19T10:43:31;66.72;51.10;81.58;;
66888;Laerm;67239;51.680;5.976;2023-09-19T10:46:07;67.00;51.37;78.88;;
66888;Laerm;67239;51.680;5.976;2023-09-19T10:48:35;65.38;50.86;78.27;;
66888;Laerm;67239;51.680;5.976;2023-09-19T10:51:20;65.37;50.17;79.45;;
66888;Laerm;67239;51.680;5.976;2023-09-19T10:54:13;66.85;53.18;79.27;;
66888;Laerm;67239;51.680;5.976;2023-09-19T10:56:48;68.27;50.89;82.19;;
66888;Laerm;67239;51.680;5.976;2023-09-19T10:59:20;68.97;52.51;80.90;;
66888;Laerm;67239;51.680;5.976;2023-09-19T11:01:54;66.50;49.02;80.06;;
66888;Laerm;67239;51.680;5.976;2023-09-19T11:07:12;67.88;50.34;79.54;;
66888;Laerm;67239;51.680;5.976;2023-09-19T11:09:54;67.90;51.91;78.28;;
66888;Laerm;67239;51.680;5.976;2023-09-19T11:15:03;69.13;55.21;81.83;;
66888;Laerm;67239;51.680;5.976;2023-09-19T11:17:36;66.52;50.59;80.04;;
66888;Laerm;67239;51.680;5.976;2023-09-19T11:30:41;67.62;49.92;83.27;;
66888;Laerm;67239;51.680;5.976;2023-09-19T11:33:19;67.82;53.26;80.07;;
66888;Laerm;67239;51.680;5.976;2023-09-19T11:43:48;66.65;51.55;77.80;;
66888;Laerm;67239;51.680;5.976;2023-09-19T11:46:23;66.26;53.80;79.08;;
66888;Laerm;67239;51.680;5.976;2023-09-19T11:48:51;68.02;54.58;78.11;;
66888;Laerm;67239;51.680;5.976;2023-09-19T11:51:26;65.63;50.52;78.79;;
66888;Laerm;67239;51.680;5.976;2023-09-19T11:53:57;69.15;53.53;79.59;;
66888;Laerm;67239;51.680;5.976;2023-09-19T11:56:28;69.62;53.50;81.31;;
66888;Laerm;67239;51.680;5.976;2023-09-19T11:58:56;68.87;53.88;83.43;;
66888;Laerm;67239;51.680;5.976;2023-09-19T12:01:33;67.22;54.44;81.80;;
66888;Laerm;67239;51.680;5.976;2023-09-19T12:04:03;69.47;56.47;80.00;;
66888;Laerm;67239;51.680;5.976;2023-09-19T12:06:32;70.50;54.42;82.47;;
66888;Laerm;67239;51.680;5.976;2023-09-19T12:08:59;69.21;51.42;80.87;;
66888;Laerm;67239;51.680;5.976;2023-09-19T12:11:30;68.57;53.87;81.11;;
66888;Laerm;67239;51.680;5.976;2023-09-19T12:14:02;67.64;52.99;81.24;;
66888;Laerm;67239;51.680;5.976;2023-09-19T12:16:29;69.42;51.87;83.53;;
66888;Laerm;67239;51.680;5.976;2023-09-19T12:19:17;70.13;53.49;84.32;;
66888;Laerm;67239;51.680;5.976;2023-09-19T12:21:59;69.37;54.17;81.46;;
66888;Laerm;67239;51.680;5.976;2023-09-19T12:24:32;70.24;52.95;86.43;;
66888;Laerm;67239;51.680;5.976;2023-09-19T12:27:04;66.19;52.60;79.71;;
66888;Laerm;67239;51.680;5.976;2023-09-19T12:29:45;67.21;51.42;79.71;;
66888;Laerm;67239;51.680;5.976;2023-09-19T12:32:12;68.91;52.77;81.15;;
66888;Laerm;67239;51.680;5.976;2023-09-19T12:34:41;67.53;49.62;80.58;;
66888;Laerm;67239;51.680;5.976;2023-09-19T12:37:13;66.63;52.30;79.63;;
66888;Laerm;67239;51.680;5.976;2023-09-19T12:39:50;68.59;51.62;83.74;;
66888;Laerm;67239;51.680;5.976;2023-09-19T12:42:26;66.50;52.72;77.45;;
66888;Laerm;67239;51.680;5.976;2023-09-19T12:44:59;70.39;52.00;86.63;;
66888;Laerm;67239;51.680;5.976;2023-09-19T12:47:28;69.31;52.90;83.99;;
66888;Laerm;67239;51.680;5.976;2023-09-19T12:50:07;68.42;49.84;81.26;;
66888;Laerm;67239;51.680;5.976;2023-09-19T12:52:43;69.54;51.49;84.65;;
66888;Laerm;67239;51.680;5.976;2023-09-19T12:55:29;67.72;52.68;79.88;;
66888;Laerm;67239;51.680;5.976;2023-09-19T13:00:35;69.60;53.64;80.41;;
66888;Laerm;67239;51.680;5.976;2023-09-19T13:05:54;67.42;50.32;78.64;;
66888;Laerm;67239;51.680;5.976;2023-09-19T13:08:32;64.70;48.25;77.42;;
66888;Laerm;67239;51.680;5.976;2023-09-19T13:13:43;68.91;53.66;81.19;;
66888;Laerm;67239;51.680;5.976;2023-09-19T13:16:17;66.05;50.41;80.14;;
66888;Laerm;67239;51.680;5.976;2023-09-19T13:18:52;68.30;48.45;78.86;;
66888;Laerm;67239;51.680;5.976;2023-09-19T13:21:29;68.18;53.54;79.32;;
66888;Laerm;67239;51.680;5.976;2023-09-19T13:24:23;66.72;54.71;81.71;;
66888;Laerm;67239;51.680;5.976;2023-09-19T13:26:54;67.99;51.07;82.18;;
66888;Laerm;67239;51.680;5.976;2023-09-19T13:29:21;67.32;52.42;80.50;;
66888;Laerm;67239;51.680;5.976;2023-09-19T13:31:50;65.82;52.10;79.34;;
66888;Laerm;67239;51.680;5.976;2023-09-19T13:34:20;66.79;50.97;80.41;;
66888;Laerm;67239;51.680;5.976;2023-09-19T13:36:47;68.11;49.91;77.67;;
66888;Laerm;67239;51.680;5.976;2023-09-19T13:39:16;66.30;50.75;80.60;;
66888;Laerm;67239;51.680;5.976;2023-09-19T13:41:46;67.58;48.45;79.36;;
66888;Laerm;67239;51.680;5.976;2023-09-19T13:44:14;68.49;50.45;81.19;;
66888;Laerm;67239;51.680;5.976;2023-09-19T13:46:44;68.34;53.71;82.23;;
66888;Laerm;67239;51.680;5.976;2023-09-19T13:49:14;67.94;53.34;79.57;;
66888;Laerm;67239;51.680;5.976;2023-09-19T13:51:41;70.26;54.74;82.77;;
66888;Laerm;67239;51.680;5.976;2023-09-19T13:54:11;69.32;55.05;79.41;;
66888;Laerm;67239;51.680;5.976;2023-09-19T13:56:39;71.35;53.57;85.60;;
66888;Laerm;67239;51.680;5.976;2023-09-19T13:59:07;67.99;53.38;81.29;;
66888;Laerm;67239;51.680;5.976;2023-09-19T14:01:35;68.57;51.79;82.04;;
66888;Laerm;67239;51.680;5.976;2023-09-19T14:04:02;68.71;53.96;79.59;;
66888;Laerm;67239;51.680;5.976;2023-09-19T14:06:29;67.62;55.70;79.28;;
66888;Laerm;67239;51.680;5.976;2023-09-19T14:08:57;68.73;47.33;83.03;;
66888;Laerm;67239;51.680;5.976;2023-09-19T14:11:24;67.38;49.92;81.44;;
66888;Laerm;67239;51.680;5.976;2023-09-19T14:13:51;67.21;53.00;79.26;;
66888;Laerm;67239;51.680;5.976;2023-09-19T14:16:22;70.32;55.99;82.21;;
66888;Laerm;67239;51.680;5.976;2023-09-19T14:18:51;67.26;49.05;78.78;;
66888;Laerm;67239;51.680;5.976;2023-09-19T14:21:19;68.73;48.64;83.08;;
66888;Laerm;67239;51.680;5.976;2023-09-19T14:23:46;67.73;50.68;81.37;;
66888;Laerm;67239;51.680;5.976;2023-09-19T14:26:13;69.12;50.95;81.10;;
66888;Laerm;67239;51.680;5.976;2023-09-19T14:28:41;70.64;52.13;82.50;;
66888;Laerm;67239;51.680;5.976;2023-09-19T14:31:10;68.30;51.46;81.83;;
66888;Laerm;67239;51.680;5.976;2023-09-19T14:33:40;67.11;53.72;79.99;;
66888;Laerm;67239;51.680;5.976;2023-09-19T14:36:09;69.27;51.49;82.13;;
66888;Laerm;67239;51.680;5.976;2023-09-19T14:38:40;67.49;51.36;77.43;;
66888;Laerm;67239;51.680;5.976;2023-09-19T14:41:07;69.42;53.29;83.59;;
66888;Laerm;67239;51.680;5.976;2023-09-19T14:43:35;69.67;51.83;80.93;;
66888;Laerm;67239;51.680;5.976;2023-09-19T14:46:06;69.18;55.01;78.93;;
66888;Laerm;67239;51.680;5.976;2023-09-19T14:48:40;70.36;54.21;86.74;;